ADDS METAR Data INFO
IDs: Format: Raw Decoded Include TAF

Data at: 1516 UTC 23 Oct 2017

KOGS 231455Z AUTO 18008KT 10SM CLR 20/09 A3010 RMK AO2 T01970091
KOGS 231435Z AUTO 19007KT 10SM CLR 19/09 A3012 RMK AO2 T01850085
KOGS 231415Z AUTO 18007KT 10SM CLR 18/08 A3013 RMK AO2 T01790081
KOGS 231355Z AUTO 19006KT 10SM CLR 17/08 A3013 RMK AO2 T01710079
KOGS 231335Z AUTO 19007KT 10SM CLR 17/08 A3014 RMK AO2 T01680077
KOGS 231315Z AUTO 19006KT 10SM CLR 16/08 A3015 RMK AO2 T01620077
KOGS 231255Z AUTO 19006KT 10SM CLR 16/08 A3015 RMK AO2 T01550078
KOGS 231235Z AUTO 19005KT 10SM CLR 15/08 A3015 RMK AO2 T01500080
KOGS 231215Z AUTO 19007KT 10SM CLR 15/08 A3015 RMK AO2 T01450080
KOGS 231155Z AUTO 19006KT 10SM CLR 14/08 A3015 RMK AO2 T01360081 10162 20132
KOGS 231135Z AUTO 19004KT 10SM CLR 13/08 A3015 RMK AO2 T01330080
KOGS 231115Z AUTO 19005KT 10SM CLR 13/08 A3015 RMK AO2 T01330080
KOGS 231055Z AUTO 19004KT 10SM CLR 13/08 A3015 RMK AO2 T01340080
KOGS 231035Z AUTO 17004KT 10SM CLR 14/08 A3015 RMK AO2 T01350080
KOGS 231015Z AUTO 19004KT 10SM CLR 14/08 A3016 RMK AO2 T01440080
KOGS 230955Z AUTO 18005KT 10SM CLR 14/08 A3015 RMK AO2 T01430080
KOGS 230935Z AUTO 18004KT 10SM CLR 14/08 A3016 RMK AO2 T01440079
KOGS 230915Z AUTO 19004KT 10SM CLR 15/08 A3016 RMK AO2 T01460077
KOGS 230855Z AUTO 19005KT 10SM CLR 15/08 A3016 RMK AO2 T01460076
KOGS 230835Z AUTO 19005KT 10SM CLR 15/08 A3016 RMK AO2 T01510075
KOGS 230815Z AUTO 19006KT 10SM CLR 16/08 A3017 RMK AO2 T01580075
KOGS 230755Z AUTO 19008KT 10SM CLR 16/07 A3016 RMK AO2 T01570073
KOGS 230735Z AUTO 19005KT 10SM CLR 16/07 A3016 RMK AO2 T01600072
KOGS 230715Z AUTO 19007KT 10SM CLR 16/07 A3017 RMK AO2 T01620073
KOGS 230655Z AUTO 19006KT 10SM CLR 16/07 A3017 RMK AO2 T01610074
KOGS 230635Z AUTO 19005KT 10SM CLR 16/08 A3017 RMK AO2 T01580075
KOGS 230615Z AUTO 19005KT 10SM CLR 16/08 A3017 RMK AO2 T01550075
KOGS 230555Z AUTO 19005KT 10SM CLR 15/08 A3017 RMK AO2 T01530076 10153 20107
KOGS 230535Z AUTO 18005KT 10SM CLR 15/08 A3017 RMK AO2 T01530077
KOGS 230515Z AUTO 18004KT 10SM CLR 15/08 A3018 RMK AO2 T01500078
KOGS 230455Z AUTO 19004KT 10SM CLR 15/08 A3019 RMK AO2 T01510080
KOGS 230435Z AUTO 17005KT 10SM CLR 15/08 A3019 RMK AO2 T01510080
KOGS 230415Z AUTO 17004KT 10SM CLR 15/08 A3019 RMK AO2 T01470080
KOGS 230355Z AUTO 17004KT 10SM CLR 15/08 A3020 RMK AO2 T01500078 402520047
KOGS 230335Z AUTO 17004KT 10SM CLR 15/08 A3020 RMK AO2 T01480081
KOGS 230315Z AUTO 18004KT 10SM CLR 15/08 A3020 RMK AO2 T01470080
KOGS 230255Z AUTO 18004KT 10SM CLR 15/08 A3021 RMK AO2 T01500083
KOGS 230235Z AUTO 18005KT 10SM CLR 15/09 A3021 RMK AO2 T01480089
KOGS 230215Z AUTO 16003KT 10SM CLR 14/10 A3022 RMK AO2 T01440097
KOGS 230155Z AUTO 20004KT 10SM CLR 13/11 A3022 RMK AO2 T01270106
KOGS 230135Z AUTO 19004KT 10SM CLR 12/11 A3022 RMK AO2 T01160106
KOGS 230115Z AUTO 19004KT 10SM CLR 11/10 A3022 RMK AO2 T01120103
KOGS 230055Z AUTO 18003KT 10SM CLR 11/10 A3022 RMK AO2 T01140104
KOGS 230035Z AUTO 00000KT 10SM CLR 11/10 A3022 RMK AO2 T01100099
KOGS 230015Z AUTO 00000KT 10SM CLR 11/10 A3022 RMK AO2 T01130099
KOGS 222355Z AUTO 00000KT 10SM CLR 12/11 A3022 RMK AO2 T01240107 10252 20124
KOGS 222335Z AUTO 00000KT 10SM CLR 13/11 A3022 RMK AO2 T01320113
KOGS 222315Z AUTO 00000KT 10SM CLR 14/12 A3022 RMK AO2 T01360115
KOGS 222255Z AUTO 00000KT 10SM CLR 15/12 A3022 RMK AO2 T01470121
KOGS 222235Z AUTO 00000KT 10SM CLR 16/12 A3021 RMK AO2 T01590124
KOGS 222215Z AUTO 00000KT 10SM CLR 17/13 A3021 RMK AO2 T01730128
KOGS 222155Z AUTO 00000KT 10SM CLR 19/13 A3021 RMK AO2 T01880132
KOGS 222135Z AUTO 00000KT 10SM CLR 21/14 A3021 RMK AO2 T02100137
KOGS 222115Z AUTO 00000KT 10SM CLR 21/12 A3021 RMK AO2 T02130119
KOGS 222055Z AUTO 00000KT 10SM CLR 24/10 A3021 RMK AO2 T02350095
KOGS 222035Z AUTO 20005KT 10SM CLR 25/09 A3021 RMK AO2 T02510090
KOGS 222015Z AUTO 18005KT 10SM CLR 25/09 A3022 RMK AO2 T02450089
KOGS 221955Z AUTO 00000KT 10SM CLR 24/10 A3022 RMK AO2 T02410097
KOGS 221935Z AUTO 21003KT 10SM CLR 23/10 A3022 RMK AO2 T02320099
KOGS 221915Z AUTO 21003KT 10SM CLR 24/09 A3023 RMK AO2 T02360087
KOGS 221855Z AUTO 19004KT 10SM CLR 24/08 A3023 RMK AO2 T02400084
KOGS 221835Z AUTO 20004KT 10SM CLR 24/08 A3024 RMK AO2 T02400081
KOGS 221815Z AUTO 21004KT 10SM CLR 23/09 A3025 RMK AO2 T02330085
KOGS 221755Z AUTO 19004KT 10SM CLR 24/08 A3026 RMK AO2 T02350081 10236 20062
KOGS 221735Z AUTO 21005KT 10SM CLR 24/08 A3027 RMK AO2 T02350079
KOGS 221715Z AUTO 21006KT 10SM CLR 23/08 A3027 RMK AO2 T02330081
KOGS 221655Z AUTO 21005KT 10SM CLR 23/08 A3028 RMK AO2 T02260078
KOGS 221635Z AUTO 22006KT 10SM CLR 23/08 A3028 RMK AO2 T02290075
KOGS 221615Z AUTO 21008KT 10SM CLR 22/08 A3028 RMK AO2 T02240076
KOGS 221555Z AUTO 21006KT 10SM CLR 22/07 A3028 RMK AO2 T02230072
KOGS 221535Z AUTO 21007KT 10SM CLR 22/07 A3028 RMK AO2 T02190073
KOGS 221515Z AUTO 00000KT 10SM CLR 20/08 A3029 RMK AO2 T02010077
KOGS 221455Z AUTO 19003KT 10SM CLR 19/08 A3028 RMK AO2 T01920079
KOGS 221435Z AUTO 00000KT 10SM CLR 19/09 A3028 RMK AO2 T01930086
KOGS 221415Z AUTO 00000KT 10SM CLR 16/08 A3029 RMK AO2 T01610082
KOGS 221355Z AUTO 18004KT 10SM CLR 16/08 A3029 RMK AO2 T01600080
KOGS 221335Z AUTO 00000KT 10SM CLR 15/11 A3030 RMK AO2 T01510110
KOGS 221315Z AUTO 00000KT 10SM CLR 12/12 A3031 RMK AO2 T01220115
KOGS 221255Z AUTO 00000KT 10SM CLR 10/10 A3032 RMK AO2 T01030101
KOGS 221235Z AUTO 00000KT 10SM CLR 07/07 A3031 RMK AO2 T00680065
KOGS 221215Z AUTO 00000KT 10SM CLR 06/06 A3031 RMK AO2 T00630059
KOGS 221155Z AUTO 00000KT 10SM CLR 06/06 A3031 RMK AO2 T00640060 10065 20047
KOGS 221135Z AUTO 00000KT 10SM CLR 06/06 A3030 RMK AO2 T00610057
KOGS 221115Z AUTO 00000KT 10SM CLR 06/05 A3030 RMK AO2 T00590054
KOGS 221055Z AUTO 00000KT 10SM CLR 06/06 A3030 RMK AO2 T00610057
KOGS 221035Z AUTO 00000KT 10SM CLR 06/05 A3031 RMK AO2 T00570053
KOGS 221015Z AUTO 00000KT 10SM CLR 06/06 A3030 RMK AO2 T00580055
KOGS 220955Z AUTO 00000KT 10SM CLR 06/05 A3030 RMK AO2 T00560052
KOGS 220935Z AUTO 00000KT 10SM CLR 05/04 A3030 RMK AO2 T00470043
KOGS 220915Z AUTO 00000KT 10SM CLR 05/04 A3030 RMK AO2 T00480043
KOGS 220855Z AUTO 00000KT 10SM CLR 05/05 A3029 RMK AO2 T00510046
KOGS 220835Z AUTO 07003KT 10SM CLR 06/05 A3029 RMK AO2 T00550051
KOGS 220815Z AUTO 00000KT 10SM CLR 05/04 A3029 RMK AO2 T00480043
KOGS 220755Z AUTO 00000KT 10SM CLR 05/05 A3028 RMK AO2 T00530048
KOGS 220735Z AUTO 00000KT 05/05 A3028 RMK AO2 T00540049 PWINO
KOGS 220715Z AUTO 00000KT 10SM CLR 05/05 A3028 RMK AO2 T00540048
KOGS 220655Z AUTO 00000KT 10SM CLR 06/05 A3028 RMK AO2 T00560050
KOGS 220635Z AUTO 00000KT 10SM CLR 06/05 A3028 RMK AO2 T00550048
KOGS 220615Z AUTO 00000KT 10SM CLR 06/05 A3028 RMK AO2 T00560050
KOGS 220535Z AUTO 00000KT 10SM CLR 06/06 A3028 RMK AO2 T00620055
KOGS 220515Z AUTO 00000KT 10SM CLR 07/06 A3028 RMK AO2 T00700062
KOGS 220455Z AUTO 00000KT 10SM CLR 07/06 A3028 RMK AO2 T00680060
KOGS 220435Z AUTO 00000KT 10SM CLR 08/07 A3028 RMK AO2 T00750066
KOGS 220415Z AUTO 00000KT 10SM CLR 08/07 A3027 RMK AO2 T00760067
KOGS 220355Z AUTO 00000KT 10SM CLR 08/07 A3027 RMK AO2 T00800070 402260070
KOGS 220335Z AUTO 00000KT 10SM CLR 08/07 A3028 RMK AO2 T00800070